Terminal Aerodrome Forecast
Issued by NWS Omaha/Valley, NE

Home | Current Version | Previous Version | Text Only | Print | Product List | Glossary On
Versions: 1 2 3 4 5 6 7 8 9 10 11 12 13 14 15 16 17 18 19 20 21 22 23 24 25 26 27
000
FTUS43 KOAX 010301 AAA
TAFLNK
TAF AMD
KLNK 010301Z 0103/0124 08007KT P6SM SCT050 BKN100
      TEMPO 0103/0106 -SHRA BKN050
     FM010900 VRB03KT P6SM SCT050 SCT250
      TEMPO 0110/0113 5SM BR
     FM011600 08007KT P6SM SCT040 SCT250=

USA.gov is the U.S. government's official web portal to all federal, state and local government web resources and services.